sensor_id;sensor_type;location;lat;lon;timestamp;temperature;humidity
42841;DHT22;28491;46.898;7.660;2022-09-13T00:00:20;14.50;73.20
42841;DHT22;28491;46.898;7.660;2022-09-13T00:02:46;14.60;73.10
42841;DHT22;28491;46.898;7.660;2022-09-13T00:05:11;14.50;73.10
42841;DHT22;28491;46.898;7.660;2022-09-13T00:07:37;14.40;73.20
42841;DHT22;28491;46.898;7.660;2022-09-13T00:10:03;14.40;73.50
42841;DHT22;28491;46.898;7.660;2022-09-13T00:12:28;14.40;73.50
42841;DHT22;28491;46.898;7.660;2022-09-13T00:14:54;14.40;73.40
42841;DHT22;28491;46.898;7.660;2022-09-13T00:17:19;14.50;73.30
42841;DHT22;28491;46.898;7.660;2022-09-13T00:19:46;14.40;73.10
42841;DHT22;28491;46.898;7.660;2022-09-13T00:22:11;14.50;73.30
42841;DHT22;28491;46.898;7.660;2022-09-13T00:24:37;14.40;73.10
42841;DHT22;28491;46.898;7.660;2022-09-13T00:27:02;14.40;73.50
42841;DHT22;28491;46.898;7.660;2022-09-13T00:29:28;14.40;73.60
42841;DHT22;28491;46.898;7.660;2022-09-13T00:31:54;14.50;73.50
42841;DHT22;28491;46.898;7.660;2022-09-13T00:34:19;14.60;73.10
42841;DHT22;28491;46.898;7.660;2022-09-13T00:36:45;14.60;72.70
42841;DHT22;28491;46.898;7.660;2022-09-13T00:39:11;14.50;72.50
42841;DHT22;28491;46.898;7.660;2022-09-13T00:41:37;14.40;72.60
42841;DHT22;28491;46.898;7.660;2022-09-13T00:44:03;14.40;73.10
42841;DHT22;28491;46.898;7.660;2022-09-13T00:46:41;14.30;73.20
42841;DHT22;28491;46.898;7.660;2022-09-13T00:49:18;14.20;73.30
42841;DHT22;28491;46.898;7.660;2022-09-13T00:51:50;14.00;73.50
42841;DHT22;28491;46.898;7.660;2022-09-13T00:54:21;13.90;73.60
42841;DHT22;28491;46.898;7.660;2022-09-13T00:56:53;13.80;74.10
42841;DHT22;28491;46.898;7.660;2022-09-13T00:59:27;13.70;74.90
42841;DHT22;28491;46.898;7.660;2022-09-13T01:01:56;13.70;74.90
42841;DHT22;28491;46.898;7.660;2022-09-13T01:04:24;13.80;74.70
42841;DHT22;28491;46.898;7.660;2022-09-13T01:06:53;13.80;74.30
42841;DHT22;28491;46.898;7.660;2022-09-13T01:09:19;13.80;74.20
42841;DHT22;28491;46.898;7.660;2022-09-13T01:11:47;13.70;74.20
42841;DHT22;28491;46.898;7.660;2022-09-13T01:14:16;13.70;74.50
42841;DHT22;28491;46.898;7.660;2022-09-13T01:16:42;13.60;74.70
42841;DHT22;28491;46.898;7.660;2022-09-13T01:19:07;13.50;75.00
42841;DHT22;28491;46.898;7.660;2022-09-13T01:30:18;13.30;76.40
42841;DHT22;28491;46.898;7.660;2022-09-13T01:36:01;13.30;75.60
42841;DHT22;28491;46.898;7.660;2022-09-13T01:38:58;13.20;75.60
42841;DHT22;28491;46.898;7.660;2022-09-13T01:44:19;13.30;76.60
42841;DHT22;28491;46.898;7.660;2022-09-13T01:49:44;13.30;75.90
42841;DHT22;28491;46.898;7.660;2022-09-13T01:52:28;13.30;75.60
42841;DHT22;28491;46.898;7.660;2022-09-13T01:58:36;13.10;77.10
42841;DHT22;28491;46.898;7.660;2022-09-13T02:01:17;12.90;76.00
42841;DHT22;28491;46.898;7.660;2022-09-13T02:03:48;13.00;77.20
42841;DHT22;28491;46.898;7.660;2022-09-13T02:06:22;13.10;76.80
42841;DHT22;28491;46.898;7.660;2022-09-13T02:08:56;13.10;76.60
42841;DHT22;28491;46.898;7.660;2022-09-13T02:11:23;13.10;76.60
42841;DHT22;28491;46.898;7.660;2022-09-13T02:16:25;13.00;76.20
42841;DHT22;28491;46.898;7.660;2022-09-13T02:18:56;13.10;76.40
42841;DHT22;28491;46.898;7.660;2022-09-13T02:21:28;13.20;75.80
42841;DHT22;28491;46.898;7.660;2022-09-13T02:24:02;13.10;75.60
42841;DHT22;28491;46.898;7.660;2022-09-13T02:26:30;13.10;75.60
42841;DHT22;28491;46.898;7.660;2022-09-13T02:29:02;13.00;75.70
42841;DHT22;28491;46.898;7.660;2022-09-13T02:31:39;13.10;76.10
42841;DHT22;28491;46.898;7.660;2022-09-13T02:34:14;13.10;75.60
42841;DHT22;28491;46.898;7.660;2022-09-13T02:36:45;13.20;75.50
42841;DHT22;28491;46.898;7.660;2022-09-13T02:39:15;13.20;76.10
42841;DHT22;28491;46.898;7.660;2022-09-13T02:41:52;13.20;75.90
42841;DHT22;28491;46.898;7.660;2022-09-13T02:44:35;13.20;75.60
42841;DHT22;28491;46.898;7.660;2022-09-13T02:57:34;13.40;74.30
42841;DHT22;28491;46.898;7.660;2022-09-13T03:00:03;13.50;73.90
42841;DHT22;28491;46.898;7.660;2022-09-13T03:02:33;13.40;74.10
42841;DHT22;28491;46.898;7.660;2022-09-13T03:04:59;13.40;74.00
42841;DHT22;28491;46.898;7.660;2022-09-13T03:07:25;13.40;74.30
42841;DHT22;28491;46.898;7.660;2022-09-13T03:09:55;13.30;74.10
42841;DHT22;28491;46.898;7.660;2022-09-13T03:15:32;13.30;74.20
42841;DHT22;28491;46.898;7.660;2022-09-13T03:20:57;13.30;73.50
42841;DHT22;28491;46.898;7.660;2022-09-13T03:23:52;13.20;73.50
42841;DHT22;28491;46.898;7.660;2022-09-13T03:29:31;13.20;73.60
42841;DHT22;28491;46.898;7.660;2022-09-13T03:34:54;13.00;74.50
42841;DHT22;28491;46.898;7.660;2022-09-13T03:37:31;12.80;74.80
42841;DHT22;28491;46.898;7.660;2022-09-13T03:40:21;12.70;75.30
42841;DHT22;28491;46.898;7.660;2022-09-13T03:42:54;12.60;75.60
42841;DHT22;28491;46.898;7.660;2022-09-13T03:45:28;12.40;76.20
42841;DHT22;28491;46.898;7.660;2022-09-13T03:47:55;12.40;77.00
42841;DHT22;28491;46.898;7.660;2022-09-13T03:50:22;12.50;77.10
42841;DHT22;28491;46.898;7.660;2022-09-13T03:52:57;12.60;76.90
42841;DHT22;28491;46.898;7.660;2022-09-13T03:55:23;12.60;76.50
42841;DHT22;28491;46.898;7.660;2022-09-13T03:57:50;12.70;76.10
42841;DHT22;28491;46.898;7.660;2022-09-13T04:00:16;12.60;75.50
42841;DHT22;28491;46.898;7.660;2022-09-13T04:02:43;12.50;75.80
42841;DHT22;28491;46.898;7.660;2022-09-13T04:05:08;12.50;76.30
42841;DHT22;28491;46.898;7.660;2022-09-13T04:07:34;12.50;76.10
42841;DHT22;28491;46.898;7.660;2022-09-13T04:09:59;12.50;76.00
42841;DHT22;28491;46.898;7.660;2022-09-13T04:12:25;12.50;75.90
42841;DHT22;28491;46.898;7.660;2022-09-13T04:14:52;12.60;76.20
42841;DHT22;28491;46.898;7.660;2022-09-13T04:17:18;12.60;76.20
42841;DHT22;28491;46.898;7.660;2022-09-13T04:19:43;12.60;76.00
42841;DHT22;28491;46.898;7.660;2022-09-13T04:22:10;12.70;75.30
42841;DHT22;28491;46.898;7.660;2022-09-13T04:24:35;12.70;75.20
42841;DHT22;28491;46.898;7.660;2022-09-13T04:27:01;12.60;75.30
42841;DHT22;28491;46.898;7.660;2022-09-13T04:29:27;12.60;75.30
42841;DHT22;28491;46.898;7.660;2022-09-13T04:31:53;12.70;75.10
42841;DHT22;28491;46.898;7.660;2022-09-13T04:34:20;12.70;74.70
42841;DHT22;28491;46.898;7.660;2022-09-13T04:36:51;12.70;74.70
42841;DHT22;28491;46.898;7.660;2022-09-13T04:39:18;12.70;74.10
42841;DHT22;28491;46.898;7.660;2022-09-13T04:41:44;12.90;74.20
42841;DHT22;28491;46.898;7.660;2022-09-13T04:44:12;12.80;74.50
42841;DHT22;28491;46.898;7.660;2022-09-13T04:46:38;12.70;74.60
42841;DHT22;28491;46.898;7.660;2022-09-13T04:49:04;12.70;74.40
42841;DHT22;28491;46.898;7.660;2022-09-13T04:51:29;12.70;74.90
42841;DHT22;28491;46.898;7.660;2022-09-13T04:53:55;12.70;75.20
42841;DHT22;28491;46.898;7.660;2022-09-13T04:56:22;12.80;75.20
42841;DHT22;28491;46.898;7.660;2022-09-13T04:58:53;12.80;74.90
42841;DHT22;28491;46.898;7.660;2022-09-13T05:01:18;12.80;74.50
42841;DHT22;28491;46.898;7.660;2022-09-13T05:03:44;12.90;74.80
42841;DHT22;28491;46.898;7.660;2022-09-13T05:06:12;12.90;74.70
42841;DHT22;28491;46.898;7.660;2022-09-13T05:08:39;13.00;74.50
42841;DHT22;28491;46.898;7.660;2022-09-13T05:11:06;13.00;74.10
42841;DHT22;28491;46.898;7.660;2022-09-13T05:13:32;13.00;74.30
42841;DHT22;28491;46.898;7.660;2022-09-13T05:16:00;13.00;74.10
42841;DHT22;28491;46.898;7.660;2022-09-13T05:18:30;13.00;74.00
42841;DHT22;28491;46.898;7.660;2022-09-13T05:20:57;12.90;73.80
42841;DHT22;28491;46.898;7.660;2022-09-13T05:23:23;13.10;73.60
42841;DHT22;28491;46.898;7.660;2022-09-13T05:25:58;13.00;73.80
42841;DHT22;28491;46.898;7.660;2022-09-13T05:28:26;13.00;73.60
42841;DHT22;28491;46.898;7.660;2022-09-13T05:31:03;13.10;73.50
42841;DHT22;28491;46.898;7.660;2022-09-13T05:33:32;13.10;73.70
42841;DHT22;28491;46.898;7.660;2022-09-13T05:35:58;13.10;73.10
42841;DHT22;28491;46.898;7.660;2022-09-13T05:38:24;13.10;73.20
42841;DHT22;28491;46.898;7.660;2022-09-13T05:40:54;13.20;73.30
42841;DHT22;28491;46.898;7.660;2022-09-13T05:43:21;13.30;73.30
42841;DHT22;28491;46.898;7.660;2022-09-13T05:45:46;13.40;72.80
42841;DHT22;28491;46.898;7.660;2022-09-13T05:48:12;13.50;72.30
42841;DHT22;28491;46.898;7.660;2022-09-13T05:50:37;13.60;72.20
42841;DHT22;28491;46.898;7.660;2022-09-13T05:53:03;13.70;72.20
42841;DHT22;28491;46.898;7.660;2022-09-13T05:55:29;13.80;72.20
42841;DHT22;28491;46.898;7.660;2022-09-13T05:57:55;14.00;71.50
42841;DHT22;28491;46.898;7.660;2022-09-13T06:00:20;14.20;71.20
42841;DHT22;28491;46.898;7.660;2022-09-13T06:02:46;14.20;70.20
42841;DHT22;28491;46.898;7.660;2022-09-13T06:05:12;14.40;70.10
42841;DHT22;28491;46.898;7.660;2022-09-13T06:07:41;15.00;68.40
42841;DHT22;28491;46.898;7.660;2022-09-13T06:10:07;16.60;64.20
42841;DHT22;28491;46.898;7.660;2022-09-13T06:12:33;18.10;61.20
42841;DHT22;28491;46.898;7.660;2022-09-13T06:14:59;19.20;60.10
42841;DHT22;28491;46.898;7.660;2022-09-13T06:17:24;20.10;52.80
42841;DHT22;28491;46.898;7.660;2022-09-13T06:19:50;20.50;45.20
42841;DHT22;28491;46.898;7.660;2022-09-13T06:22:16;19.80;49.60
42841;DHT22;28491;46.898;7.660;2022-09-13T06:24:41;20.70;45.80
42841;DHT22;28491;46.898;7.660;2022-09-13T06:27:07;21.20;41.40
42841;DHT22;28491;46.898;7.660;2022-09-13T06:29:32;19.80;48.50
42841;DHT22;28491;46.898;7.660;2022-09-13T06:31:58;18.70;56.10
42841;DHT22;28491;46.898;7.660;2022-09-13T06:34:23;17.60;61.80
42841;DHT22;28491;46.898;7.660;2022-09-13T06:36:49;17.10;64.00
42841;DHT22;28491;46.898;7.660;2022-09-13T06:39:14;16.80;64.90
42841;DHT22;28491;46.898;7.660;2022-09-13T06:41:40;16.80;64.90
42841;DHT22;28491;46.898;7.660;2022-09-13T06:44:05;18.20;63.40
42841;DHT22;28491;46.898;7.660;2022-09-13T06:46:33;19.90;60.30
42841;DHT22;28491;46.898;7.660;2022-09-13T06:49:03;20.80;49.40
42841;DHT22;28491;46.898;7.660;2022-09-13T06:51:30;21.70;47.80
42841;DHT22;28491;46.898;7.660;2022-09-13T06:53:57;22.00;40.20
42841;DHT22;28491;46.898;7.660;2022-09-13T06:56:28;22.00;39.60
42841;DHT22;28491;46.898;7.660;2022-09-13T06:58:56;21.50;42.00
42841;DHT22;28491;46.898;7.660;2022-09-13T07:03:52;19.10;60.70
42841;DHT22;28491;46.898;7.660;2022-09-13T07:06:22;18.80;62.00
42841;DHT22;28491;46.898;7.660;2022-09-13T07:08:49;18.60;63.20
42841;DHT22;28491;46.898;7.660;2022-09-13T07:11:17;18.30;64.20
42841;DHT22;28491;46.898;7.660;2022-09-13T07:13:47;18.20;64.30
42841;DHT22;28491;46.898;7.660;2022-09-13T07:16:13;18.10;64.80
42841;DHT22;28491;46.898;7.660;2022-09-13T07:18:39;18.10;65.30
42841;DHT22;28491;46.898;7.660;2022-09-13T07:21:06;18.20;65.30
42841;DHT22;28491;46.898;7.660;2022-09-13T07:23:34;18.30;65.30
42841;DHT22;28491;46.898;7.660;2022-09-13T07:26:00;18.40;64.00
42841;DHT22;28491;46.898;7.660;2022-09-13T07:28:38;18.40;64.50
42841;DHT22;28491;46.898;7.660;2022-09-13T07:31:18;18.50;64.50
42841;DHT22;28491;46.898;7.660;2022-09-13T07:33:45;19.40;61.90
42841;DHT22;28491;46.898;7.660;2022-09-13T07:36:12;20.10;60.80
42841;DHT22;28491;46.898;7.660;2022-09-13T07:38:40;20.50;60.70
42841;DHT22;28491;46.898;7.660;2022-09-13T07:41:10;20.80;59.40
42841;DHT22;28491;46.898;7.660;2022-09-13T07:43:36;21.60;51.70
42841;DHT22;28491;46.898;7.660;2022-09-13T07:46:04;22.60;45.80
42841;DHT22;28491;46.898;7.660;2022-09-13T07:48:34;23.60;41.80
42841;DHT22;28491;46.898;7.660;2022-09-13T07:51:21;24.30;37.50
42841;DHT22;28491;46.898;7.660;2022-09-13T07:53:48;23.80;32.90
42841;DHT22;28491;46.898;7.660;2022-09-13T07:56:16;24.00;36.70
42841;DHT22;28491;46.898;7.660;2022-09-13T07:58:44;24.60;35.10
42841;DHT22;28491;46.898;7.660;2022-09-13T08:03:38;26.10;34.50
42841;DHT22;28491;46.898;7.660;2022-09-13T08:06:05;26.20;34.40
42841;DHT22;28491;46.898;7.660;2022-09-13T08:08:31;26.60;32.10
42841;DHT22;28491;46.898;7.660;2022-09-13T08:10:57;26.50;30.40
42841;DHT22;28491;46.898;7.660;2022-09-13T08:13:23;26.40;32.20
42841;DHT22;28491;46.898;7.660;2022-09-13T08:15:49;26.60;31.60
42841;DHT22;28491;46.898;7.660;2022-09-13T08:18:16;26.60;30.00
42841;DHT22;28491;46.898;7.660;2022-09-13T08:20:42;26.70;34.60
42841;DHT22;28491;46.898;7.660;2022-09-13T08:23:09;26.80;35.40
42841;DHT22;28491;46.898;7.660;2022-09-13T08:25:36;26.80;33.80
42841;DHT22;28491;46.898;7.660;2022-09-13T08:28:14;27.10;35.10
42841;DHT22;28491;46.898;7.660;2022-09-13T08:30:41;27.10;34.20
42841;DHT22;28491;46.898;7.660;2022-09-13T08:33:08;27.30;36.00
42841;DHT22;28491;46.898;7.660;2022-09-13T08:35:34;27.40;32.90
42841;DHT22;28491;46.898;7.660;2022-09-13T08:38:00;27.20;32.90
42841;DHT22;28491;46.898;7.660;2022-09-13T08:40:32;27.30;35.20
42841;DHT22;28491;46.898;7.660;2022-09-13T08:43:18;27.30;36.70
42841;DHT22;28491;46.898;7.660;2022-09-13T08:45:49;27.30;37.00
42841;DHT22;28491;46.898;7.660;2022-09-13T08:48:18;27.50;38.50
42841;DHT22;28491;46.898;7.660;2022-09-13T08:50:46;27.40;35.60
42841;DHT22;28491;46.898;7.660;2022-09-13T08:53:19;27.20;35.70
42841;DHT22;28491;46.898;7.660;2022-09-13T08:56:00;27.40;35.60
42841;DHT22;28491;46.898;7.660;2022-09-13T09:01:49;27.80;33.50
42841;DHT22;28491;46.898;7.660;2022-09-13T09:07:08;27.80;31.80
42841;DHT22;28491;46.898;7.660;2022-09-13T09:09:40;27.80;32.20
42841;DHT22;28491;46.898;7.660;2022-09-13T09:12:22;27.80;32.40
42841;DHT22;28491;46.898;7.660;2022-09-13T09:15:15;27.60;30.00
42841;DHT22;28491;46.898;7.660;2022-09-13T09:17:52;27.60;31.30
42841;DHT22;28491;46.898;7.660;2022-09-13T09:20:39;27.80;33.50
42841;DHT22;28491;46.898;7.660;2022-09-13T09:23:13;27.90;32.00
42841;DHT22;28491;46.898;7.660;2022-09-13T09:25:40;28.00;36.00
42841;DHT22;28491;46.898;7.660;2022-09-13T09:28:11;28.50;35.50
42841;DHT22;28491;46.898;7.660;2022-09-13T09:30:51;28.70;36.90
42841;DHT22;28491;46.898;7.660;2022-09-13T09:38:37;29.00;34.50
42841;DHT22;28491;46.898;7.660;2022-09-13T09:41:13;29.00;34.60
42841;DHT22;28491;46.898;7.660;2022-09-13T09:46:27;28.80;35.10
42841;DHT22;28491;46.898;7.660;2022-09-13T09:48:59;28.80;33.20
42841;DHT22;28491;46.898;7.660;2022-09-13T09:51:27;28.90;32.90
42841;DHT22;28491;46.898;7.660;2022-09-13T09:53:59;28.70;31.30
42841;DHT22;28491;46.898;7.660;2022-09-13T09:56:31;28.50;31.10
42841;DHT22;28491;46.898;7.660;2022-09-13T09:58:58;28.50;30.90
42841;DHT22;28491;46.898;7.660;2022-09-13T10:01:33;28.70;29.10
42841;DHT22;28491;46.898;7.660;2022-09-13T10:06:34;28.50;30.50
42841;DHT22;28491;46.898;7.660;2022-09-13T10:09:03;28.50;28.50
42841;DHT22;28491;46.898;7.660;2022-09-13T10:14:41;28.60;31.10
42841;DHT22;28491;46.898;7.660;2022-09-13T10:17:24;28.20;30.90
42841;DHT22;28491;46.898;7.660;2022-09-13T10:19:58;28.20;33.20
42841;DHT22;28491;46.898;7.660;2022-09-13T10:22:26;28.20;32.50
42841;DHT22;28491;46.898;7.660;2022-09-13T10:24:52;28.40;31.70
42841;DHT22;28491;46.898;7.660;2022-09-13T10:29:52;28.10;36.20
42841;DHT22;28491;46.898;7.660;2022-09-13T10:32:20;27.90;32.80
42841;DHT22;28491;46.898;7.660;2022-09-13T10:34:47;27.70;37.40
42841;DHT22;28491;46.898;7.660;2022-09-13T10:37:18;27.70;34.80
42841;DHT22;28491;46.898;7.660;2022-09-13T10:40:04;27.50;31.20
42841;DHT22;28491;46.898;7.660;2022-09-13T10:42:33;27.40;34.00
42841;DHT22;28491;46.898;7.660;2022-09-13T10:45:05;27.30;33.90
42841;DHT22;28491;46.898;7.660;2022-09-13T10:47:54;27.20;34.60
42841;DHT22;28491;46.898;7.660;2022-09-13T10:50:20;27.10;34.60
42841;DHT22;28491;46.898;7.660;2022-09-13T10:52:56;27.00;34.10
42841;DHT22;28491;46.898;7.660;2022-09-13T10:55:32;26.80;35.80
42841;DHT22;28491;46.898;7.660;2022-09-13T11:00:43;26.60;35.20
42841;DHT22;28491;46.898;7.660;2022-09-13T11:03:13;26.60;34.90
42841;DHT22;28491;46.898;7.660;2022-09-13T11:09:00;26.90;39.50
42841;DHT22;28491;46.898;7.660;2022-09-13T11:11:43;27.10;36.90
42841;DHT22;28491;46.898;7.660;2022-09-13T11:14:34;27.20;35.20
42841;DHT22;28491;46.898;7.660;2022-09-13T11:17:41;27.30;37.30
42841;DHT22;28491;46.898;7.660;2022-09-13T11:20:27;27.20;36.00
42841;DHT22;28491;46.898;7.660;2022-09-13T12:05:44;28.20;38.40
42841;DHT22;28491;46.898;7.660;2022-09-13T12:08:18;28.10;37.60
42841;DHT22;28491;46.898;7.660;2022-09-13T12:11:02;27.90;38.50
42841;DHT22;28491;46.898;7.660;2022-09-13T12:13:35;27.70;36.40
42841;DHT22;28491;46.898;7.660;2022-09-13T12:16:12;27.60;36.30
42841;DHT22;28491;46.898;7.660;2022-09-13T12:18:48;27.30;36.40
42841;DHT22;28491;46.898;7.660;2022-09-13T12:21:21;27.20;39.00
42841;DHT22;28491;46.898;7.660;2022-09-13T12:26:30;27.00;40.60
42841;DHT22;28491;46.898;7.660;2022-09-13T12:29:12;26.70;38.30
42841;DHT22;28491;46.898;7.660;2022-09-13T12:31:38;26.60;39.00
42841;DHT22;28491;46.898;7.660;2022-09-13T12:34:06;26.40;39.30
42841;DHT22;28491;46.898;7.660;2022-09-13T12:53:28;27.10;38.20
42841;DHT22;28491;46.898;7.660;2022-09-13T12:56:28;27.00;36.90
42841;DHT22;28491;46.898;7.660;2022-09-13T12:59:18;26.80;37.00
42841;DHT22;28491;46.898;7.660;2022-09-13T13:01:48;26.80;36.90
42841;DHT22;28491;46.898;7.660;2022-09-13T13:04:17;26.90;38.90
42841;DHT22;28491;46.898;7.660;2022-09-13T13:06:59;26.90;40.80
42841;DHT22;28491;46.898;7.660;2022-09-13T13:09:42;26.90;40.70
42841;DHT22;28491;46.898;7.660;2022-09-13T13:12:10;26.80;38.20
42841;DHT22;28491;46.898;7.660;2022-09-13T13:19:58;26.70;39.90
42841;DHT22;28491;46.898;7.660;2022-09-13T13:25:32;26.60;40.50
42841;DHT22;28491;46.898;7.660;2022-09-13T13:28:01;26.50;41.90
42841;DHT22;28491;46.898;7.660;2022-09-13T13:30:41;26.40;43.50
42841;DHT22;28491;46.898;7.660;2022-09-13T13:33:17;26.50;42.70
42841;DHT22;28491;46.898;7.660;2022-09-13T13:35:43;26.50;43.90
42841;DHT22;28491;46.898;7.660;2022-09-13T13:41:06;26.40;39.40
42841;DHT22;28491;46.898;7.660;2022-09-13T13:43:33;26.40;42.10
42841;DHT22;28491;46.898;7.660;2022-09-13T13:48:38;26.10;42.60
42841;DHT22;28491;46.898;7.660;2022-09-13T13:51:14;26.00;42.30
42841;DHT22;28491;46.898;7.660;2022-09-13T13:53:44;25.80;43.20
42841;DHT22;28491;46.898;7.660;2022-09-13T13:56:54;25.60;41.90
42841;DHT22;28491;46.898;7.660;2022-09-13T13:59:30;25.50;44.20
42841;DHT22;28491;46.898;7.660;2022-09-13T14:01:58;25.30;45.10
42841;DHT22;28491;46.898;7.660;2022-09-13T14:04:33;25.30;47.00
42841;DHT22;28491;46.898;7.660;2022-09-13T14:18:39;24.80;48.20
42841;DHT22;28491;46.898;7.660;2022-09-13T14:21:27;24.70;49.70
42841;DHT22;28491;46.898;7.660;2022-09-13T14:24:15;24.70;51.20
42841;DHT22;28491;46.898;7.660;2022-09-13T14:26:42;24.70;55.30
42841;DHT22;28491;46.898;7.660;2022-09-13T14:29:08;24.70;55.50
42841;DHT22;28491;46.898;7.660;2022-09-13T14:31:34;24.80;54.30
42841;DHT22;28491;46.898;7.660;2022-09-13T14:34:01;24.80;53.50
42841;DHT22;28491;46.898;7.660;2022-09-13T14:36:27;24.80;50.80
42841;DHT22;28491;46.898;7.660;2022-09-13T14:38:57;24.80;48.20
42841;DHT22;28491;46.898;7.660;2022-09-13T14:41:33;24.70;51.40
42841;DHT22;28491;46.898;7.660;2022-09-13T14:44:23;24.80;54.30
42841;DHT22;28491;46.898;7.660;2022-09-13T14:47:16;24.90;56.50
42841;DHT22;28491;46.898;7.660;2022-09-13T14:49:47;24.90;52.40
42841;DHT22;28491;46.898;7.660;2022-09-13T14:52:53;24.90;57.40
42841;DHT22;28491;46.898;7.660;2022-09-13T14:55:14;24.80;57.30
42841;DHT22;28491;46.898;7.660;2022-09-13T14:57:46;24.80;57.60
42841;DHT22;28491;46.898;7.660;2022-09-13T15:02:39;24.70;60.40
42841;DHT22;28491;46.898;7.660;2022-09-13T15:05:11;24.70;60.60
42841;DHT22;28491;46.898;7.660;2022-09-13T15:07:39;24.70;60.50
42841;DHT22;28491;46.898;7.660;2022-09-13T15:12:36;24.80;60.60
42841;DHT22;28491;46.898;7.660;2022-09-13T15:17:56;24.70;59.50
42841;DHT22;28491;46.898;7.660;2022-09-13T15:20:23;24.60;60.40
42841;DHT22;28491;46.898;7.660;2022-09-13T15:22:49;24.70;60.20
42841;DHT22;28491;46.898;7.660;2022-09-13T15:25:20;24.80;57.30
42841;DHT22;28491;46.898;7.660;2022-09-13T15:27:48;24.70;46.30
42841;DHT22;28491;46.898;7.660;2022-09-13T15:30:31;24.50;48.10
42841;DHT22;28491;46.898;7.660;2022-09-13T15:35:41;24.50;48.60
42841;DHT22;28491;46.898;7.660;2022-09-13T15:38:36;24.40;46.40
42841;DHT22;28491;46.898;7.660;2022-09-13T15:41:12;24.30;51.90
42841;DHT22;28491;46.898;7.660;2022-09-13T15:43:38;24.20;56.50
42841;DHT22;28491;46.898;7.660;2022-09-13T15:46:04;24.10;55.70
42841;DHT22;28491;46.898;7.660;2022-09-13T15:48:32;24.00;57.80
42841;DHT22;28491;46.898;7.660;2022-09-13T15:51:12;23.80;60.20
42841;DHT22;28491;46.898;7.660;2022-09-13T15:53:41;23.60;61.10
42841;DHT22;28491;46.898;7.660;2022-09-13T15:56:08;23.60;61.20
42841;DHT22;28491;46.898;7.660;2022-09-13T15:58:35;23.50;62.10
42841;DHT22;28491;46.898;7.660;2022-09-13T16:01:01;23.50;62.50
42841;DHT22;28491;46.898;7.660;2022-09-13T16:03:27;23.40;63.00
42841;DHT22;28491;46.898;7.660;2022-09-13T16:05:53;23.40;63.70
42841;DHT22;28491;46.898;7.660;2022-09-13T16:08:19;23.40;63.50
42841;DHT22;28491;46.898;7.660;2022-09-13T16:10:45;23.30;64.10
42841;DHT22;28491;46.898;7.660;2022-09-13T16:13:11;23.40;64.20
42841;DHT22;28491;46.898;7.660;2022-09-13T16:15:36;23.40;65.00
42841;DHT22;28491;46.898;7.660;2022-09-13T16:18:02;23.30;64.50
42841;DHT22;28491;46.898;7.660;2022-09-13T16:20:28;23.20;64.70
42841;DHT22;28491;46.898;7.660;2022-09-13T16:22:53;23.20;64.80
42841;DHT22;28491;46.898;7.660;2022-09-13T16:25:19;23.20;64.60
42841;DHT22;28491;46.898;7.660;2022-09-13T16:27:45;23.20;64.90
42841;DHT22;28491;46.898;7.660;2022-09-13T16:30:13;23.30;63.80
42841;DHT22;28491;46.898;7.660;2022-09-13T16:32:38;23.20;64.60
42841;DHT22;28491;46.898;7.660;2022-09-13T16:35:06;23.30;64.60
42841;DHT22;28491;46.898;7.660;2022-09-13T16:37:31;23.20;64.20
42841;DHT22;28491;46.898;7.660;2022-09-13T16:39:57;23.20;64.20
42841;DHT22;28491;46.898;7.660;2022-09-13T16:42:22;23.10;64.70
42841;DHT22;28491;46.898;7.660;2022-09-13T16:44:48;23.00;66.50
42841;DHT22;28491;46.898;7.660;2022-09-13T16:47:14;22.90;66.80
42841;DHT22;28491;46.898;7.660;2022-09-13T16:49:40;22.70;67.30
42841;DHT22;28491;46.898;7.660;2022-09-13T16:52:06;22.50;68.30
42841;DHT22;28491;46.898;7.660;2022-09-13T16:54:31;22.50;69.10
42841;DHT22;28491;46.898;7.660;2022-09-13T16:56:59;22.40;68.70
42841;DHT22;28491;46.898;7.660;2022-09-13T16:59:26;22.40;67.90
42841;DHT22;28491;46.898;7.660;2022-09-13T17:01:51;22.40;67.50
42841;DHT22;28491;46.898;7.660;2022-09-13T17:04:17;22.30;67.30
42841;DHT22;28491;46.898;7.660;2022-09-13T17:06:43;22.10;68.50
42841;DHT22;28491;46.898;7.660;2022-09-13T17:09:08;21.90;69.70
42841;DHT22;28491;46.898;7.660;2022-09-13T17:11:36;21.90;69.80
42841;DHT22;28491;46.898;7.660;2022-09-13T17:14:04;21.90;68.60
42841;DHT22;28491;46.898;7.660;2022-09-13T17:16:43;21.80;69.30
42841;DHT22;28491;46.898;7.660;2022-09-13T17:19:15;21.80;69.10
42841;DHT22;28491;46.898;7.660;2022-09-13T17:21:41;21.70;69.40
42841;DHT22;28491;46.898;7.660;2022-09-13T17:24:07;21.60;69.10
42841;DHT22;28491;46.898;7.660;2022-09-13T17:26:32;21.50;68.80
42841;DHT22;28491;46.898;7.660;2022-09-13T17:28:58;21.40;69.70
42841;DHT22;28491;46.898;7.660;2022-09-13T17:31:24;21.50;68.40
42841;DHT22;28491;46.898;7.660;2022-09-13T17:33:50;21.40;67.40
42841;DHT22;28491;46.898;7.660;2022-09-13T17:36:17;21.40;67.30
42841;DHT22;28491;46.898;7.660;2022-09-13T17:38:43;21.30;67.70
42841;DHT22;28491;46.898;7.660;2022-09-13T17:41:14;21.20;68.30
42841;DHT22;28491;46.898;7.660;2022-09-13T17:43:40;21.10;69.00
42841;DHT22;28491;46.898;7.660;2022-09-13T17:46:21;21.10;69.00
42841;DHT22;28491;46.898;7.660;2022-09-13T17:48:51;21.00;70.20
42841;DHT22;28491;46.898;7.660;2022-09-13T17:51:18;21.00;70.50
42841;DHT22;28491;46.898;7.660;2022-09-13T17:54:05;20.90;70.80
42841;DHT22;28491;46.898;7.660;2022-09-13T17:56:33;20.90;70.90
42841;DHT22;28491;46.898;7.660;2022-09-13T17:59:05;20.70;70.90
42841;DHT22;28491;46.898;7.660;2022-09-13T18:01:31;20.70;70.60
42841;DHT22;28491;46.898;7.660;2022-09-13T18:03:57;20.70;70.90
42841;DHT22;28491;46.898;7.660;2022-09-13T18:06:22;20.60;70.90
42841;DHT22;28491;46.898;7.660;2022-09-13T18:08:51;20.60;70.30
42841;DHT22;28491;46.898;7.660;2022-09-13T18:11:16;20.60;70.30
42841;DHT22;28491;46.898;7.660;2022-09-13T18:13:43;20.60;70.20
42841;DHT22;28491;46.898;7.660;2022-09-13T18:16:18;20.50;70.50
42841;DHT22;28491;46.898;7.660;2022-09-13T18:18:44;20.40;70.20
42841;DHT22;28491;46.898;7.660;2022-09-13T18:21:11;20.40;70.00
42841;DHT22;28491;46.898;7.660;2022-09-13T18:23:39;20.30;70.00
42841;DHT22;28491;46.898;7.660;2022-09-13T18:26:07;20.30;69.70
42841;DHT22;28491;46.898;7.660;2022-09-13T18:28:33;20.20;69.80
42841;DHT22;28491;46.898;7.660;2022-09-13T18:31:01;20.20;69.70
42841;DHT22;28491;46.898;7.660;2022-09-13T18:33:30;20.10;69.30
42841;DHT22;28491;46.898;7.660;2022-09-13T18:36:06;20.10;69.60
42841;DHT22;28491;46.898;7.660;2022-09-13T18:38:43;20.20;68.80
42841;DHT22;28491;46.898;7.660;2022-09-13T18:41:12;20.20;69.30
42841;DHT22;28491;46.898;7.660;2022-09-13T18:43:39;20.20;68.90
42841;DHT22;28491;46.898;7.660;2022-09-13T18:46:09;20.10;69.00